createdAt,value
2018-03-18T10:33:10.471Z,49.52
2018-03-18T10:34:10.411Z,48.86
2018-03-18T10:35:10.387Z,47.80
2018-03-18T10:36:10.361Z,47.80
2018-03-18T10:37:10.334Z,47.70
2018-03-18T10:38:10.309Z,47.51
2018-03-18T10:39:10.286Z,47.70
2018-03-18T10:40:10.254Z,48.46
2018-03-18T10:41:10.233Z,47.99
2018-03-18T10:42:10.208Z,48.08
2018-03-18T10:43:10.176Z,48.27
2018-03-18T10:44:10.152Z,48.65
2018-03-18T10:45:10.141Z,49.50
2018-03-18T10:46:10.100Z,48.65
2018-03-18T10:47:10.123Z,48.84
2018-03-18T10:48:10.052Z,48.74
2018-03-18T10:49:10.035Z,48.84
2018-03-18T10:50:10.002Z,48.08
2018-03-18T10:51:09.980Z,47.99
2018-03-18T10:52:09.953Z,47.99
2018-03-18T10:53:09.926Z,47.61
2018-03-18T10:54:09.902Z,47.70
2018-03-18T10:55:09.877Z,48.27
2018-03-18T10:56:09.848Z,48.27
2018-03-18T10:57:09.827Z,48.08
2018-03-18T10:58:09.798Z,47.23
2018-03-18T10:59:09.773Z,47.61
2018-03-18T11:00:09.750Z,46.97
2018-03-18T11:01:09.725Z,46.66
2018-03-18T11:02:09.692Z,46.56
2018-03-18T11:03:09.674Z,46.94
2018-03-18T11:04:09.652Z,47.44
2018-03-18T11:05:09.622Z,46.94
2018-03-18T11:06:09.596Z,46.56
2018-03-18T11:07:09.574Z,46.85
2018-03-18T11:08:09.552Z,46.94
2018-03-18T11:09:09.523Z,46.94
2018-03-18T11:10:09.497Z,46.94
2018-03-18T11:11:09.474Z,47.61
2018-03-18T11:12:09.447Z,47.99
2018-03-18T11:13:09.422Z,46.85
2018-03-18T11:14:09.396Z,46.47
2018-03-18T11:15:09.403Z,46.66
2018-03-18T11:16:09.375Z,45.90
2018-03-18T11:17:09.332Z,46.37
2018-03-18T11:18:09.298Z,46.47
2018-03-18T11:19:09.270Z,46.88
2018-03-18T11:20:09.330Z,46.40
2018-03-18T11:21:09.225Z,45.67
2018-03-18T11:22:09.196Z,44.72
2018-03-18T11:23:09.178Z,44.24
2018-03-18T11:24:09.151Z,43.68
2018-03-18T11:25:09.119Z,43.68
2018-03-18T11:26:09.101Z,43.39
2018-03-18T11:27:09.116Z,43.20
2018-03-18T11:28:09.069Z,43.30
2018-03-18T11:29:09.039Z,43.49
2018-03-18T11:30:09.048Z,43.20
2018-03-18T11:31:08.986Z,43.08
2018-03-18T11:32:08.960Z,43.46
2018-03-18T11:33:08.937Z,43.84
2018-03-18T11:34:08.913Z,43.39
2018-03-18T11:35:08.885Z,43.37
2018-03-18T11:36:08.875Z,42.90
2018-03-18T11:37:08.851Z,43.46
2018-03-18T11:38:08.825Z,43.46
2018-03-18T11:39:08.798Z,43.84
2018-03-18T11:40:08.776Z,44.22
2018-03-18T11:41:08.757Z,44.70
2018-03-18T11:42:08.726Z,45.17
2018-03-18T11:43:08.703Z,44.32
2018-03-18T11:44:08.681Z,43.75
2018-03-18T11:45:08.658Z,44.20
2018-03-18T11:46:08.632Z,44.60
2018-03-18T11:47:08.614Z,44.60
2018-03-18T11:48:08.589Z,43.94
2018-03-18T11:49:08.564Z,44.03
2018-03-18T11:50:08.538Z,43.75
2018-03-18T11:51:08.518Z,43.49
2018-03-18T11:52:08.488Z,43.20
2018-03-18T11:53:08.472Z,42.56
2018-03-18T11:54:08.444Z,41.35
2018-03-18T11:55:08.417Z,40.19
2018-03-18T11:56:08.398Z,40.12
2018-03-18T11:57:08.375Z,38.96
2018-03-18T11:58:08.352Z,38.77
2018-03-18T11:59:08.329Z,38.48
2018-03-18T12:00:08.310Z,38.86
2018-03-18T12:01:08.347Z,39.34
2018-03-18T12:02:08.260Z,38.89
2018-03-18T12:03:08.246Z,38.12
2018-03-18T12:04:08.243Z,37.93
2018-03-18T12:05:08.203Z,38.31
2018-03-18T12:06:08.183Z,37.84
2018-03-18T12:07:08.165Z,37.48
2018-03-18T12:08:08.139Z,36.82
2018-03-18T12:09:08.119Z,36.05
2018-03-18T12:10:08.104Z,36.05
2018-03-18T12:11:08.084Z,35.96
2018-03-18T12:12:08.060Z,35.20
2018-03-18T12:13:08.044Z,35.22
2018-03-18T12:14:08.023Z,34.67
2018-03-18T12:15:08.008Z,34.86
2018-03-18T12:16:07.987Z,33.24
2018-03-18T12:17:07.976Z,33.34
2018-03-18T12:18:07.951Z,33.05
2018-03-18T12:19:07.946Z,32.94
2018-03-18T12:20:07.917Z,33.40
2018-03-18T12:21:07.898Z,34.65
2018-03-18T12:22:07.882Z,35.33
2018-03-18T12:23:07.865Z,34.75
2018-03-18T12:24:07.851Z,34.48
2018-03-18T12:25:07.831Z,34.36
2018-03-18T12:26:07.811Z,34.27
2018-03-18T12:27:07.794Z,34.75
2018-03-18T12:28:07.798Z,34.17
2018-03-18T12:29:07.760Z,34.36
2018-03-18T12:30:07.741Z,34.94
2018-03-18T12:31:07.731Z,34.19
2018-03-18T12:32:07.711Z,33.44
2018-03-18T12:33:07.691Z,33.26
2018-03-18T12:34:07.674Z,33.17
2018-03-18T12:35:07.659Z,32.50
2018-03-18T12:36:07.637Z,32.03
2018-03-18T12:37:07.619Z,32.21
2018-03-18T12:38:07.601Z,31.55
2018-03-18T12:39:07.649Z,31.74
2018-03-18T12:40:07.569Z,31.84
2018-03-18T12:41:07.553Z,32.80
2018-03-18T12:42:07.535Z,32.40
2018-03-18T12:43:07.517Z,32.12
2018-03-18T12:44:07.503Z,32.50
2018-03-18T12:45:07.485Z,33.45
2018-03-18T12:46:07.466Z,33.37
2018-03-18T12:47:07.454Z,32.90
2018-03-18T12:48:07.516Z,32.23
2018-03-18T12:49:07.421Z,31.47
2018-03-18T12:50:07.403Z,30.88
2018-03-18T12:51:07.425Z,31.45
2018-03-18T12:52:07.362Z,31.45
2018-03-18T12:53:07.347Z,31.44
2018-03-18T12:54:07.335Z,31.34
2018-03-18T12:55:07.314Z,31.44
2018-03-18T12:56:07.301Z,31.92
2018-03-18T12:57:07.276Z,32.01
2018-03-18T12:58:07.261Z,31.72
2018-03-18T12:59:07.240Z,32.01
2018-03-18T13:00:07.225Z,31.53
2018-03-18T13:01:07.208Z,32.48
2018-03-18T13:02:07.190Z,31.82
2018-03-18T13:03:07.182Z,32.20
2018-03-18T13:04:07.160Z,32.01
2018-03-18T13:05:07.141Z,32.39
2018-03-18T13:06:07.122Z,32.20
2018-03-18T13:07:07.105Z,32.50
2018-03-18T13:08:07.085Z,31.84
2018-03-18T13:09:07.068Z,31.72
2018-03-18T13:10:07.062Z,32.12
2018-03-18T13:11:07.034Z,31.84
2018-03-18T13:12:07.024Z,31.36
2018-03-18T13:13:06.998Z,31.07
2018-03-18T13:14:06.986Z,30.41
2018-03-18T13:15:06.966Z,31.34
2018-03-18T13:16:06.948Z,31.44
2018-03-18T13:17:06.928Z,31.34
2018-03-18T13:18:06.914Z,31.34
2018-03-18T13:19:06.895Z,31.34
2018-03-18T13:20:06.876Z,31.34
2018-03-18T13:21:06.856Z,30.49
2018-03-18T13:22:06.838Z,30.77
2018-03-18T13:23:06.869Z,30.96
2018-03-18T13:24:06.802Z,31.34
2018-03-18T13:25:06.855Z,31.53
2018-03-18T13:26:06.770Z,32.01
2018-03-18T13:27:06.747Z,32.01
2018-03-18T13:28:06.735Z,32.10
2018-03-18T13:29:06.717Z,31.15
2018-03-18T13:30:06.743Z,31.25
2018-03-18T13:31:06.682Z,31.93
2018-03-18T13:32:06.659Z,31.64
2018-03-18T13:33:06.644Z,31.34
2018-03-18T13:34:06.674Z,30.68
2018-03-18T13:35:06.612Z,30.58
2018-03-18T13:36:06.593Z,31.64
2018-03-18T13:37:06.573Z,31.36
2018-03-18T13:38:06.557Z,30.96
2018-03-18T13:39:06.541Z,30.30
2018-03-18T13:40:06.529Z,31.25
2018-03-18T13:41:06.505Z,32.12
2018-03-18T13:42:06.490Z,30.98
2018-03-18T13:43:06.476Z,30.31
2018-03-18T13:44:06.459Z,30.31
2018-03-18T13:45:06.439Z,29.36
2018-03-18T13:46:06.426Z,29.46
2018-03-18T13:47:06.405Z,30.22
2018-03-18T13:48:06.390Z,30.22
2018-03-18T13:49:06.365Z,29.44
2018-03-18T13:50:06.349Z,30.58
2018-03-18T13:51:06.329Z,30.57
2018-03-18T13:52:06.312Z,31.34
2018-03-18T13:53:06.294Z,31.25
2018-03-18T13:54:06.281Z,30.88
2018-03-18T13:55:06.265Z,31.26
2018-03-18T13:56:06.245Z,30.68
2018-03-18T13:57:06.236Z,30.30
2018-03-18T13:58:06.212Z,31.26
2018-03-18T13:59:06.195Z,31.84
2018-03-18T14:00:06.191Z,31.26
2018-03-18T14:01:06.155Z,31.64
2018-03-18T14:02:06.146Z,31.74
2018-03-18T14:03:06.125Z,31.74
2018-03-18T14:04:06.111Z,31.95
2018-03-18T14:05:06.095Z,31.55
2018-03-18T14:06:06.075Z,30.79
2018-03-18T14:07:06.052Z,31.17
2018-03-18T14:08:06.042Z,31.45
2018-03-18T14:09:06.023Z,31.47
2018-03-18T14:10:06.006Z,30.41
2018-03-18T14:11:05.990Z,31.26
2018-03-18T14:12:05.972Z,31.09
2018-03-18T14:13:05.956Z,31.56
2018-03-18T14:14:05.949Z,31.09
2018-03-18T14:15:06.016Z,30.41
2018-03-18T14:16:05.906Z,31.05
2018-03-18T14:17:05.888Z,31.74
2018-03-18T14:18:05.874Z,31.92
2018-03-18T14:19:05.857Z,31.44
2018-03-18T14:20:05.860Z,31.84
2018-03-18T14:21:05.828Z,31.93
2018-03-18T14:22:05.811Z,31.84
2018-03-18T14:23:05.790Z,31.93
2018-03-18T14:24:05.778Z,31.64
2018-03-18T14:25:05.759Z,30.77
2018-03-18T14:26:05.742Z,31.34
2018-03-18T14:27:05.721Z,31.25
2018-03-18T14:28:05.711Z,32.01
2018-03-18T14:29:05.688Z,32.03
2018-03-18T14:30:05.675Z,31.36
2018-03-18T14:31:05.667Z,31.25
2018-03-18T14:32:05.652Z,31.84
2018-03-18T14:33:05.628Z,31.34
2018-03-18T14:34:05.614Z,32.12
2018-03-18T14:35:05.598Z,31.92
2018-03-18T14:36:05.590Z,31.82
2018-03-18T14:37:05.564Z,31.72
2018-03-18T14:38:05.549Z,32.10
2018-03-18T14:39:05.530Z,32.10
2018-03-18T14:40:05.513Z,32.10
2018-03-18T14:41:05.505Z,31.72
2018-03-18T14:42:05.487Z,31.99
2018-03-18T14:43:05.476Z,32.46
2018-03-18T14:44:05.454Z,32.56
2018-03-18T14:45:05.493Z,32.67
2018-03-18T14:46:05.425Z,32.94
2018-03-18T14:47:05.407Z,32.77
2018-03-18T14:48:05.387Z,33.05
2018-03-18T14:49:05.368Z,32.28
2018-03-18T14:50:05.359Z,32.84
2018-03-18T14:51:05.341Z,33.32
2018-03-18T14:52:05.325Z,32.46
2018-03-18T14:53:05.310Z,32.65
2018-03-18T14:54:05.298Z,33.32
2018-03-18T14:55:05.281Z,33.23
2018-03-18T14:56:05.262Z,33.13
2018-03-18T14:57:05.292Z,33.23
2018-03-18T14:58:05.230Z,33.61
2018-03-18T14:59:05.212Z,33.42
2018-03-18T15:00:05.247Z,33.40
2018-03-18T15:01:05.175Z,32.71
2018-03-18T15:02:05.161Z,34.23
2018-03-18T15:03:05.138Z,35.58
2018-03-18T15:04:05.126Z,35.49
2018-03-18T15:05:05.116Z,35.39
2018-03-18T15:06:05.095Z,35.39
2018-03-18T15:07:05.080Z,35.47
2018-03-18T15:08:05.069Z,34.61
2018-03-18T15:09:05.050Z,34.90
2018-03-18T15:10:05.023Z,35.75
2018-03-18T15:11:05.005Z,36.22
2018-03-18T15:12:04.989Z,36.15
2018-03-18T15:13:04.976Z,35.28
2018-03-18T15:14:04.952Z,34.73
2018-03-18T15:15:04.936Z,34.23
2018-03-18T15:16:04.918Z,34.71
2018-03-18T15:17:04.914Z,35.18
2018-03-18T15:18:04.884Z,35.39
2018-03-18T15:19:04.877Z,34.90
2018-03-18T15:20:04.849Z,35.28
2018-03-18T15:21:04.831Z,35.18
2018-03-18T15:22:04.812Z,35.66
2018-03-18T15:23:04.797Z,36.42
2018-03-18T15:24:04.777Z,36.32
2018-03-18T15:25:04.764Z,36.42
2018-03-18T15:26:04.744Z,35.75
2018-03-18T15:27:04.721Z,35.28
2018-03-18T15:28:04.711Z,35.28
2018-03-18T15:29:04.690Z,35.66
2018-03-18T15:30:04.672Z,35.47
2018-03-18T15:31:04.651Z,35.28
2018-03-18T15:32:04.644Z,35.66
2018-03-18T15:33:04.616Z,35.45
2018-03-18T15:34:04.598Z,36.02
2018-03-18T15:35:04.579Z,36.49
2018-03-18T15:36:04.562Z,36.99
2018-03-18T15:37:04.546Z,36.68
2018-03-18T15:38:04.526Z,36.40
2018-03-18T15:39:04.503Z,36.78
2018-03-18T15:40:04.490Z,36.30
2018-03-18T15:41:04.492Z,36.99
2018-03-18T15:42:04.454Z,36.80
2018-03-18T15:43:04.441Z,36.80
2018-03-18T15:44:04.418Z,36.61
2018-03-18T15:45:04.398Z,36.32
2018-03-18T15:46:04.383Z,36.51
2018-03-18T15:47:04.358Z,36.80
2018-03-18T15:48:04.344Z,37.55
2018-03-18T15:49:04.330Z,37.46
2018-03-18T15:50:04.310Z,36.89
2018-03-18T15:51:04.291Z,36.13
2018-03-18T15:52:04.269Z,36.22
2018-03-18T15:53:04.260Z,35.57
2018-03-18T15:54:04.246Z,35.36
2018-03-18T15:55:04.216Z,36.11
2018-03-18T15:56:04.197Z,36.21
2018-03-18T15:57:04.182Z,36.11
2018-03-18T15:58:04.165Z,36.11
2018-03-18T15:59:04.144Z,36.30
2018-03-18T16:00:04.131Z,36.21
2018-03-18T16:01:04.106Z,36.49
2018-03-18T16:02:04.090Z,36.21
2018-03-18T16:03:04.070Z,37.06
2018-03-18T16:04:04.047Z,38.01
2018-03-18T16:05:04.032Z,37.25
2018-03-18T16:06:04.017Z,36.87
2018-03-18T16:07:03.994Z,37.06
2018-03-18T16:08:03.973Z,37.06
2018-03-18T16:09:03.956Z,37.44
2018-03-18T16:10:03.937Z,37.71
2018-03-18T16:11:03.918Z,37.52
2018-03-18T16:12:03.896Z,38.67
2018-03-18T16:13:03.879Z,38.56
2018-03-18T16:14:03.868Z,38.56
2018-03-18T16:15:03.837Z,38.56
2018-03-18T16:16:03.819Z,39.13
2018-03-18T16:17:03.802Z,39.49
2018-03-18T16:18:03.893Z,40.15
2018-03-18T16:19:03.760Z,39.96
2018-03-18T16:20:03.743Z,40.44
2018-03-18T16:21:03.715Z,40.81
2018-03-18T16:22:03.697Z,40.60
2018-03-18T16:23:03.668Z,40.79
2018-03-18T16:24:03.650Z,41.09
2018-03-18T16:25:03.629Z,42.14
2018-03-18T16:26:03.606Z,42.14
2018-03-18T16:27:03.597Z,42.11
2018-03-18T16:28:03.558Z,41.64
2018-03-18T16:29:03.543Z,42.30
2018-03-18T16:30:03.514Z,41.46
2018-03-18T16:31:03.498Z,42.11
2018-03-18T16:32:03.460Z,43.07
2018-03-18T16:33:03.457Z,42.78
2018-03-18T16:34:03.421Z,42.97
2018-03-18T16:35:03.394Z,42.69
2018-03-18T16:36:03.364Z,42.59
2018-03-18T16:37:03.351Z,42.66
2018-03-18T16:38:03.320Z,43.14
2018-03-18T16:39:03.290Z,43.23
2018-03-18T16:40:03.260Z,42.66
2018-03-18T16:41:03.238Z,42.66
2018-03-18T16:42:03.219Z,43.33
2018-03-18T16:43:03.193Z,43.61
2018-03-18T16:44:03.166Z,43.90
2018-03-18T16:45:03.140Z,43.52
2018-03-18T16:46:03.412Z,43.33
2018-03-18T16:47:03.081Z,43.99
2018-03-18T16:48:03.053Z,43.90
2018-03-18T16:49:03.052Z,43.80
2018-03-18T16:50:03.003Z,43.52
2018-03-18T16:51:02.973Z,43.61
2018-03-18T16:52:02.950Z,43.52
2018-03-18T16:53:02.924Z,43.61
2018-03-18T16:54:02.893Z,44.09
2018-03-18T16:55:02.876Z,43.52
2018-03-18T16:56:02.841Z,43.99
2018-03-18T16:57:02.810Z,43.71
2018-03-18T16:58:02.787Z,43.42
2018-03-18T16:59:02.760Z,43.42
2018-03-18T17:00:02.729Z,43.90
2018-03-18T17:01:02.708Z,43.52
2018-03-18T17:02:02.687Z,43.71
2018-03-18T17:03:02.648Z,43.99
2018-03-18T17:04:02.622Z,43.68
2018-03-18T17:05:02.594Z,44.06
2018-03-18T17:06:02.565Z,43.87
2018-03-18T17:07:02.539Z,44.15
2018-03-18T17:08:02.511Z,44.63
2018-03-18T17:09:02.483Z,44.63
2018-03-18T17:10:02.456Z,44.82
2018-03-18T17:11:02.428Z,44.72
2018-03-18T17:12:02.399Z,44.82
2018-03-18T17:13:02.370Z,44.82
2018-03-18T17:14:02.342Z,44.53
2018-03-18T17:15:02.315Z,44.72
2018-03-18T17:16:02.288Z,44.82
2018-03-18T17:17:02.258Z,45.10
2018-03-18T17:18:02.233Z,44.91
2018-03-18T17:19:02.202Z,44.91
2018-03-18T17:20:02.174Z,45.10
2018-03-18T17:21:02.145Z,44.91
2018-03-18T17:22:02.119Z,45.01
2018-03-18T17:23:02.089Z,45.10
2018-03-18T17:24:02.060Z,44.82
2018-03-18T17:25:02.037Z,44.91
2018-03-18T17:26:02.007Z,45.10
2018-03-18T17:27:01.974Z,45.67
2018-03-18T17:28:01.944Z,46.23
2018-03-18T17:29:01.913Z,46.14
2018-03-18T17:30:01.889Z,46.61
2018-03-18T17:31:01.865Z,46.99
2018-03-18T17:32:01.828Z,46.14
2018-03-18T17:33:01.804Z,46.61
2018-03-18T17:34:01.775Z,46.61
2018-03-18T17:35:01.746Z,46.14
2018-03-18T17:36:01.718Z,45.76
2018-03-18T17:37:01.749Z,46.14
2018-03-18T17:38:01.659Z,45.76
2018-03-18T17:39:01.632Z,46.14
2018-03-18T17:40:01.600Z,46.23
2018-03-18T17:41:01.579Z,45.95
2018-03-18T17:42:01.546Z,45.67
2018-03-18T17:43:01.513Z,45.67
2018-03-18T17:44:01.490Z,45.67
2018-03-18T17:45:01.462Z,45.48
2018-03-18T17:46:01.430Z,45.48
2018-03-18T17:47:01.401Z,45.57
2018-03-18T17:48:01.372Z,45.67
2018-03-18T17:49:01.344Z,46.52
2018-03-18T17:50:01.310Z,46.61
2018-03-18T17:51:01.285Z,46.52
2018-03-18T17:52:01.256Z,46.14
2018-03-18T17:53:01.222Z,46.61
2018-03-18T17:54:01.203Z,46.61
2018-03-18T17:55:01.166Z,46.80
2018-03-18T17:56:01.137Z,46.42
2018-03-18T17:57:01.109Z,46.42
2018-03-18T17:58:01.081Z,46.52
2018-03-18T17:59:01.054Z,46.61
2018-03-18T18:00:01.031Z,46.61
2018-03-18T18:01:00.994Z,46.40
2018-03-18T18:02:00.973Z,46.59
2018-03-18T18:03:00.930Z,46.40
2018-03-18T18:04:00.909Z,46.90
2018-03-18T18:05:00.876Z,47.37
2018-03-18T18:06:00.849Z,47.06
2018-03-18T18:07:00.820Z,46.52
2018-03-18T18:08:00.794Z,46.61
2018-03-18T18:09:00.765Z,46.61
2018-03-18T18:10:00.736Z,46.31
2018-03-18T18:11:00.702Z,45.93
2018-03-18T18:12:00.666Z,46.02
2018-03-18T18:13:00.643Z,46.88
2018-03-18T18:14:00.619Z,47.28
2018-03-18T18:15:00.589Z,47.91
2018-03-18T18:16:00.565Z,47.16
2018-03-18T18:17:00.576Z,46.78
2018-03-18T18:18:00.502Z,46.88
2018-03-18T18:19:00.471Z,46.71
2018-03-18T18:20:00.442Z,46.33
2018-03-18T18:21:00.443Z,46.97
2018-03-18T18:22:00.386Z,46.40
2018-03-18T18:23:00.353Z,46.21
2018-03-18T18:24:01.832Z,46.59
2018-03-18T18:25:00.307Z,46.21
2018-03-18T18:26:00.268Z,46.50
2018-03-18T18:27:00.242Z,46.40
2018-03-18T18:28:00.205Z,46.69
2018-03-18T18:29:00.188Z,47.25
2018-03-18T18:30:00.151Z,47.82
2018-03-18T18:31:00.121Z,47.63
2018-03-18T18:32:00.092Z,48.10
2018-03-18T18:33:00.060Z,48.10
2018-03-18T18:34:00.035Z,47.82
2018-03-18T18:34:59.997Z,47.63
2018-03-18T18:35:59.981Z,47.82
2018-03-18T18:36:59.944Z,47.91
2018-03-18T18:37:59.917Z,47.91
2018-03-18T18:38:59.883Z,47.82
2018-03-18T18:39:59.859Z,47.44
2018-03-18T18:40:59.840Z,47.82
2018-03-18T18:41:59.800Z,47.82
2018-03-18T18:42:59.770Z,47.72
2018-03-18T18:43:59.741Z,47.82
2018-03-18T18:44:59.716Z,47.53
2018-03-18T18:45:59.686Z,47.72
2018-03-18T18:46:59.653Z,47.82
2018-03-18T18:47:59.626Z,47.82
2018-03-18T18:48:59.607Z,47.82
2018-03-18T18:49:59.565Z,47.72
2018-03-18T18:50:59.535Z,47.72
2018-03-18T18:51:59.509Z,47.82
2018-03-18T18:52:59.476Z,47.72
2018-03-18T18:53:59.448Z,47.72
2018-03-18T18:54:59.419Z,47.82
2018-03-18T18:55:59.389Z,47.91
2018-03-18T18:56:59.361Z,46.97
2018-03-18T18:57:59.332Z,47.82
2018-03-18T18:58:59.299Z,47.72
2018-03-18T18:59:59.273Z,48.01
2018-03-18T19:00:59.244Z,48.29
2018-03-18T19:01:59.221Z,48.10
2018-03-18T19:02:59.221Z,48.48
2018-03-18T19:03:59.154Z,48.10
2018-03-18T19:04:59.127Z,48.39
2018-03-18T19:05:59.095Z,48.29
2018-03-18T19:06:59.064Z,48.29
2018-03-18T19:07:59.041Z,48.20
2018-03-18T19:08:59.009Z,48.20
2018-03-18T19:09:58.980Z,48.10
2018-03-18T19:10:58.952Z,48.20
2018-03-18T19:11:58.917Z,48.67
2018-03-18T19:12:58.893Z,48.86
2018-03-18T19:13:58.862Z,49.14
2018-03-18T19:14:58.835Z,49.43
2018-03-18T19:15:58.804Z,49.62
2018-03-18T19:16:58.781Z,49.24
2018-03-18T19:17:58.751Z,49.33
2018-03-18T19:18:58.716Z,49.71
2018-03-18T19:19:58.688Z,49.62
2018-03-18T19:20:58.658Z,49.90
2018-03-18T19:21:58.654Z,49.71
2018-03-18T19:22:58.598Z,49.33
2018-03-18T19:23:58.570Z,49.05
2018-03-18T19:24:58.548Z,49.43
2018-03-18T19:25:58.511Z,49.24
2018-03-18T19:26:58.480Z,49.90
2018-03-18T19:27:58.454Z,49.43
2018-03-18T19:28:58.424Z,49.71
2018-03-18T19:29:58.393Z,49.33
2018-03-18T19:30:58.369Z,49.24
2018-03-18T19:31:58.335Z,49.71
2018-03-18T19:32:58.307Z,49.80
2018-03-18T19:33:58.276Z,49.99
2018-03-18T19:34:58.247Z,49.99
2018-03-18T19:35:58.216Z,49.90
2018-03-18T19:36:58.189Z,49.52
2018-03-18T19:37:58.191Z,49.71
2018-03-18T19:38:58.159Z,49.71
2018-03-18T19:39:58.137Z,50.09
2018-03-18T19:40:58.096Z,50.56
2018-03-18T19:41:58.045Z,51.22
2018-03-18T19:42:58.016Z,50.46
2018-03-18T19:43:57.978Z,50.37
2018-03-18T19:44:57.952Z,49.71
2018-03-18T19:45:57.926Z,49.43
2018-03-18T19:46:57.898Z,49.52
2018-03-18T19:47:59.656Z,49.43
2018-03-18T19:48:57.852Z,49.05
2018-03-18T19:49:57.810Z,49.43
2018-03-18T19:50:57.780Z,49.52
2018-03-18T19:51:57.746Z,49.43
2018-03-18T19:52:57.719Z,49.14
2018-03-18T19:53:57.697Z,49.52
2018-03-18T19:54:57.655Z,49.33
2018-03-18T19:55:58.170Z,49.43
2018-03-18T19:56:57.600Z,49.71
2018-03-18T19:57:57.565Z,49.33
2018-03-18T19:58:57.555Z,49.80
2018-03-18T19:59:57.511Z,49.43
2018-03-18T20:00:57.482Z,49.62
2018-03-18T20:01:57.452Z,48.86
2018-03-18T20:02:57.428Z,48.48
2018-03-18T20:03:57.393Z,48.67
2018-03-18T20:04:57.365Z,49.33
2018-03-18T20:05:57.338Z,49.52
2018-03-18T20:06:57.310Z,49.33
2018-03-18T20:07:57.319Z,49.43
2018-03-18T20:08:57.248Z,49.24
2018-03-18T20:09:57.222Z,49.14
2018-03-18T20:10:57.196Z,48.86
2018-03-18T20:11:57.154Z,49.24
2018-03-18T20:12:57.130Z,48.95
2018-03-18T20:13:57.100Z,48.39
2018-03-18T20:14:57.068Z,48.67
2018-03-18T20:15:57.038Z,48.10
2018-03-18T20:16:57.011Z,47.91
2018-03-18T20:17:56.981Z,47.82
2018-03-18T20:18:56.952Z,48.01
2018-03-18T20:19:56.926Z,48.10
2018-03-18T20:20:56.894Z,48.20
2018-03-18T20:21:56.866Z,48.10
2018-03-18T20:22:56.841Z,48.48
2018-03-18T20:23:56.804Z,48.76
2018-03-18T20:24:56.772Z,48.29
2018-03-18T20:25:56.743Z,48.57
2018-03-18T20:26:56.719Z,48.67
2018-03-18T20:27:56.687Z,49.33
2018-03-18T20:28:56.652Z,48.67
2018-03-18T20:29:56.631Z,48.67
2018-03-18T20:30:56.597Z,49.24
2018-03-18T20:31:56.564Z,48.86
2018-03-18T20:32:56.538Z,48.39
2018-03-18T20:33:56.559Z,48.67
2018-03-18T20:34:56.478Z,48.48
2018-03-18T20:35:56.456Z,48.39
2018-03-18T20:36:56.417Z,48.67
2018-03-18T20:37:56.393Z,48.48
2018-03-18T20:38:56.361Z,49.14
2018-03-18T20:39:56.330Z,48.86
2018-03-18T20:40:56.298Z,48.39
2018-03-18T20:41:56.284Z,48.48
2018-03-18T20:42:56.242Z,48.57
2018-03-18T20:43:56.216Z,48.20
2018-03-18T20:44:56.184Z,48.29
2018-03-18T20:45:56.152Z,48.39
2018-03-18T20:46:56.125Z,49.43
2018-03-18T20:47:56.099Z,49.14
2018-03-18T20:48:56.067Z,49.05
2018-03-18T20:49:56.035Z,49.33
2018-03-18T20:50:56.007Z,49.05
2018-03-18T20:51:55.976Z,49.24
2018-03-18T20:52:55.954Z,48.67
2018-03-18T20:53:55.917Z,48.29
2018-03-18T20:54:55.889Z,48.67
2018-03-18T20:55:55.858Z,48.76
2018-03-18T20:56:55.829Z,49.33
2018-03-18T20:57:55.798Z,49.05
2018-03-18T20:58:55.771Z,49.43
2018-03-18T20:59:55.743Z,49.14
2018-03-18T21:00:55.720Z,49.33
2018-03-18T21:01:55.684Z,49.52
2018-03-18T21:02:55.653Z,49.05
2018-03-18T21:03:55.619Z,49.02
2018-03-18T21:04:55.589Z,49.30
2018-03-18T21:05:55.564Z,49.87
2018-03-18T21:06:55.530Z,49.30
2018-03-18T21:07:55.502Z,50.06
2018-03-18T21:08:55.474Z,50.06
2018-03-18T21:09:55.443Z,49.97
2018-03-18T21:10:55.416Z,50.06
2018-03-18T21:11:55.382Z,50.16
2018-03-18T21:12:55.356Z,49.97
2018-03-18T21:13:55.327Z,50.25
2018-03-18T21:14:55.341Z,50.35
2018-03-18T21:15:55.261Z,50.44
2018-03-18T21:16:55.236Z,50.82
2018-03-18T21:17:55.203Z,50.44
2018-03-18T21:18:55.177Z,49.87
2018-03-18T21:19:55.147Z,50.06
2018-03-18T21:20:55.116Z,49.87
2018-03-18T21:21:55.095Z,49.78
2018-03-18T21:22:55.063Z,50.06
2018-03-18T21:23:55.029Z,49.68
2018-03-18T21:24:54.994Z,49.78
2018-03-18T21:25:55.002Z,49.11
2018-03-18T21:26:54.939Z,49.21
2018-03-18T21:27:54.922Z,48.83
2018-03-18T21:28:54.882Z,48.46
2018-03-18T21:29:54.854Z,49.40
2018-03-18T21:30:54.818Z,49.02
2018-03-18T21:31:54.792Z,49.40
2018-03-18T21:32:54.760Z,49.49
2018-03-18T21:33:54.731Z,49.59
2018-03-18T21:34:54.706Z,49.68
2018-03-18T21:35:54.669Z,49.87
2018-03-18T21:36:54.642Z,49.59
2018-03-18T21:37:54.610Z,49.59
2018-03-18T21:38:54.581Z,49.30
2018-03-18T21:39:54.558Z,49.30
2018-03-18T21:40:54.519Z,49.30
2018-03-18T21:41:54.492Z,49.78
2018-03-18T21:42:54.464Z,50.06
2018-03-18T21:43:54.433Z,50.16
2018-03-18T21:44:54.402Z,50.25
2018-03-18T21:45:54.373Z,50.25
2018-03-18T21:46:54.347Z,50.06
2018-03-18T21:47:54.311Z,50.25
2018-03-18T21:48:54.283Z,50.25
2018-03-18T21:49:54.258Z,51.01
2018-03-18T21:50:54.223Z,50.63
2018-03-18T21:51:54.197Z,50.25
2018-03-18T21:52:54.159Z,50.25
2018-03-18T21:53:54.133Z,50.72
2018-03-18T21:54:54.106Z,50.35
2018-03-18T21:55:54.069Z,51.10
2018-03-18T21:56:54.044Z,50.63
2018-03-18T21:57:54.013Z,50.82
2018-03-18T21:58:53.987Z,50.53
2018-03-18T21:59:53.947Z,51.01
2018-03-18T22:00:53.924Z,51.29
2018-03-18T22:01:53.894Z,51.29
2018-03-18T22:02:53.862Z,50.91
2018-03-18T22:03:53.834Z,51.01
2018-03-18T22:04:53.808Z,51.48
2018-03-18T22:05:53.776Z,51.01
2018-03-18T22:06:53.744Z,51.76
2018-03-18T22:07:53.723Z,51.76
2018-03-18T22:08:53.686Z,51.76
2018-03-18T22:09:53.660Z,51.76
2018-03-18T22:10:53.626Z,51.57
2018-03-18T22:11:53.595Z,51.29
2018-03-18T22:12:53.566Z,51.20
2018-03-18T22:13:53.546Z,50.91
2018-03-18T22:14:53.506Z,50.91
2018-03-18T22:15:53.475Z,50.82
2018-03-18T22:16:53.446Z,50.91
2018-03-18T22:17:53.415Z,50.72
2018-03-18T22:18:53.386Z,51.10
2018-03-18T22:19:53.356Z,51.76
2018-03-18T22:20:53.324Z,51.39
2018-03-18T22:21:53.300Z,51.76
2018-03-18T22:22:53.266Z,51.67
2018-03-18T22:23:53.242Z,51.57
2018-03-18T22:24:53.199Z,51.86
2018-03-18T22:25:53.175Z,51.39
2018-03-18T22:26:53.154Z,51.76
2018-03-18T22:27:53.113Z,51.10
2018-03-18T22:28:53.095Z,51.39
2018-03-18T22:29:53.054Z,51.86
2018-03-18T22:30:53.024Z,52.14
2018-03-18T22:31:52.994Z,52.99
2018-03-18T22:32:52.964Z,52.80
2018-03-18T22:33:52.935Z,52.33
2018-03-18T22:34:52.906Z,51.95
2018-03-18T22:35:52.876Z,52.14
2018-03-18T22:36:52.850Z,52.14
2018-03-18T22:37:52.815Z,52.33
2018-03-18T22:38:52.844Z,52.42
2018-03-18T22:39:52.753Z,52.51
2018-03-18T22:40:52.730Z,52.23
2018-03-18T22:41:52.696Z,51.95
2018-03-18T22:42:52.665Z,51.86
2018-03-18T22:43:52.636Z,51.76
2018-03-18T22:44:52.606Z,52.42
2018-03-18T22:45:52.573Z,53.18
2018-03-18T22:46:52.547Z,52.14
2018-03-18T22:47:52.515Z,52.04
2018-03-18T22:48:52.483Z,53.46
2018-03-18T22:49:52.455Z,52.89
2018-03-18T22:50:52.422Z,52.80
2018-03-18T22:51:52.394Z,53.37
2018-03-18T22:52:52.363Z,52.80
2018-03-18T22:53:52.340Z,53.37
2018-03-18T22:54:52.307Z,53.53
2018-03-18T22:55:52.277Z,53.27
2018-03-18T22:56:52.238Z,52.61
2018-03-18T22:57:52.219Z,53.08
2018-03-18T22:58:52.182Z,52.70
2018-03-18T22:59:52.152Z,53.46
2018-03-18T23:00:52.123Z,54.03
2018-03-18T23:01:52.094Z,54.28
2018-03-18T23:02:52.062Z,54.57
2018-03-18T23:03:52.031Z,54.66
2018-03-18T23:04:52.003Z,54.47
2018-03-18T23:05:51.974Z,55.04
2018-03-18T23:06:51.944Z,54.28
2018-03-18T23:07:51.910Z,54.57
2018-03-18T23:08:51.883Z,54.85
2018-03-18T23:09:51.851Z,54.94
2018-03-18T23:10:51.823Z,54.94
2018-03-18T23:11:51.785Z,54.66
2018-03-18T23:12:51.758Z,54.57
2018-03-18T23:13:51.731Z,54.57
2018-03-18T23:14:51.701Z,54.66
2018-03-18T23:15:51.672Z,55.04
2018-03-18T23:16:51.635Z,54.57
2018-03-18T23:17:51.610Z,54.47
2018-03-18T23:18:51.582Z,54.57
2018-03-18T23:19:51.547Z,55.04
2018-03-18T23:20:51.525Z,55.32
2018-03-18T23:21:51.490Z,54.57
2018-03-18T23:22:51.468Z,54.66
2018-03-18T23:23:51.429Z,54.47
2018-03-18T23:24:51.398Z,54.57